createdAt,value
2024-03-22T00:00:46.618Z,983.00
2024-03-22T00:01:46.604Z,987.00
2024-03-22T00:02:46.702Z,982.00
2024-03-22T00:03:46.688Z,991.00
2024-03-22T00:04:47.042Z,983.00
2024-03-22T00:05:46.816Z,989.00
2024-03-22T00:06:46.918Z,990.00
2024-03-22T00:07:46.927Z,984.00
2024-03-22T00:08:46.935Z,985.00
2024-03-22T00:09:46.938Z,987.00
2024-03-22T00:10:46.982Z,979.00
2024-03-22T00:11:47.024Z,988.00
2024-03-22T00:12:47.037Z,987.00
2024-03-22T00:13:47.078Z,993.00
2024-03-22T00:14:47.118Z,986.00
2024-03-22T00:15:47.122Z,986.00
2024-03-22T00:16:47.165Z,980.00
2024-03-22T00:17:47.241Z,981.00
2024-03-22T00:18:47.254Z,978.00
2024-03-22T00:19:47.280Z,976.00
2024-03-22T00:20:47.344Z,981.00
2024-03-22T00:21:47.397Z,983.00
2024-03-22T00:22:47.509Z,978.00
2024-03-22T00:23:47.450Z,983.00
2024-03-22T00:24:47.464Z,985.00
2024-03-22T00:25:47.488Z,979.00
2024-03-22T00:26:47.508Z,982.00
2024-03-22T00:27:47.623Z,980.00
2024-03-22T00:28:47.606Z,979.00
2024-03-22T00:29:47.559Z,979.00
2024-03-22T00:30:47.647Z,979.00
2024-03-22T00:31:47.648Z,975.00
2024-03-22T00:32:48.116Z,983.00
2024-03-22T00:33:47.716Z,979.00
2024-03-22T00:34:47.721Z,983.00
2024-03-22T00:35:47.782Z,978.00
2024-03-22T00:36:47.844Z,981.00
2024-03-22T00:37:47.823Z,981.00
2024-03-22T00:38:47.853Z,974.00
2024-03-22T00:39:47.832Z,972.00
2024-03-22T00:40:47.875Z,977.00
2024-03-22T00:41:47.902Z,977.00
2024-03-22T00:42:47.924Z,981.00
2024-03-22T00:43:47.939Z,974.00
2024-03-22T00:44:47.924Z,980.00
2024-03-22T00:45:47.932Z,971.00
2024-03-22T00:46:47.975Z,980.00
2024-03-22T00:47:48.058Z,975.00
2024-03-22T00:48:47.961Z,975.00
2024-03-22T00:49:47.972Z,983.00
2024-03-22T00:50:47.978Z,978.00
2024-03-22T00:51:47.985Z,970.00
2024-03-22T00:52:48.019Z,975.00
2024-03-22T00:53:48.000Z,972.00
2024-03-22T00:54:47.988Z,968.00
2024-03-22T00:55:48.019Z,971.00
2024-03-22T00:56:48.566Z,978.00
2024-03-22T00:57:48.050Z,969.00
2024-03-22T00:58:48.124Z,974.00
2024-03-22T00:59:48.124Z,967.00
2024-03-22T01:00:48.150Z,972.00
2024-03-22T01:01:48.177Z,974.00
2024-03-22T01:02:48.193Z,974.00
2024-03-22T01:03:48.203Z,975.00
2024-03-22T01:04:48.196Z,976.00
2024-03-22T01:05:48.243Z,971.00
2024-03-22T01:06:48.277Z,968.00
2024-03-22T01:07:50.521Z,974.00
2024-03-22T01:08:48.264Z,974.00
2024-03-22T01:09:48.307Z,976.00
2024-03-22T01:10:48.305Z,969.00
2024-03-22T01:11:48.287Z,983.00
2024-03-22T01:12:48.294Z,968.00
2024-03-22T01:13:48.261Z,970.00
2024-03-22T01:14:48.290Z,970.00
2024-03-22T01:15:48.276Z,971.00
2024-03-22T01:16:48.283Z,972.00
2024-03-22T01:17:48.291Z,963.00
2024-03-22T01:18:48.298Z,973.00
2024-03-22T01:19:48.273Z,968.00
2024-03-22T01:20:48.307Z,976.00
2024-03-22T01:21:48.323Z,972.00
2024-03-22T01:22:48.285Z,965.00
2024-03-22T01:23:48.298Z,980.00
2024-03-22T01:24:48.299Z,975.00
2024-03-22T01:25:48.277Z,964.00
2024-03-22T01:26:48.283Z,978.00
2024-03-22T01:27:48.288Z,964.00
2024-03-22T01:28:48.302Z,963.00
2024-03-22T01:29:48.301Z,977.00
2024-03-22T01:30:48.297Z,970.00
2024-03-22T01:31:48.309Z,972.00
2024-03-22T01:32:48.367Z,966.00
2024-03-22T01:33:48.297Z,971.00
2024-03-22T01:34:48.301Z,967.00
2024-03-22T01:35:48.342Z,971.00
2024-03-22T01:36:48.386Z,971.00
2024-03-22T01:37:48.319Z,967.00
2024-03-22T01:38:48.308Z,967.00
2024-03-22T01:39:48.303Z,971.00
2024-03-22T01:40:48.378Z,969.00
2024-03-22T01:41:48.318Z,967.00
2024-03-22T01:42:48.314Z,967.00
2024-03-22T01:43:48.315Z,970.00
2024-03-22T01:44:48.326Z,963.00
2024-03-22T01:45:48.340Z,967.00
2024-03-22T01:46:48.316Z,965.00
2024-03-22T01:47:48.313Z,962.00
2024-03-22T01:48:48.330Z,969.00
2024-03-22T01:49:48.325Z,969.00
2024-03-22T01:50:48.312Z,964.00
2024-03-22T01:51:48.311Z,960.00
2024-03-22T01:52:48.324Z,966.00
2024-03-22T01:53:48.330Z,966.00
2024-03-22T01:54:48.338Z,962.00
2024-03-22T01:55:48.303Z,975.00
2024-03-22T01:56:48.315Z,969.00
2024-03-22T01:57:48.331Z,965.00
2024-03-22T01:58:48.341Z,966.00
2024-03-22T01:59:48.331Z,970.00
2024-03-22T02:00:48.382Z,963.00
2024-03-22T02:01:48.370Z,963.00
2024-03-22T02:02:48.357Z,962.00
2024-03-22T02:03:48.374Z,975.00
2024-03-22T02:04:48.325Z,970.00
2024-03-22T02:05:48.453Z,966.00
2024-03-22T02:06:48.343Z,956.00
2024-03-22T02:07:48.354Z,963.00
2024-03-22T02:08:48.366Z,969.00
2024-03-22T02:09:48.350Z,966.00
2024-03-22T02:10:48.337Z,962.00
2024-03-22T02:11:48.342Z,960.00
2024-03-22T02:12:48.348Z,961.00
2024-03-22T02:13:48.338Z,967.00
2024-03-22T02:14:48.343Z,962.00
2024-03-22T02:15:48.358Z,963.00
2024-03-22T02:16:48.359Z,959.00
2024-03-22T02:17:48.383Z,962.00
2024-03-22T02:18:48.355Z,966.00
2024-03-22T02:19:48.372Z,960.00
2024-03-22T02:20:48.354Z,955.00
2024-03-22T02:21:48.390Z,959.00
2024-03-22T02:22:48.354Z,967.00
2024-03-22T02:23:48.354Z,960.00
2024-03-22T02:24:48.378Z,965.00
2024-03-22T02:25:48.377Z,963.00
2024-03-22T02:26:48.355Z,965.00
2024-03-22T02:27:48.423Z,957.00
2024-03-22T02:28:48.406Z,962.00
2024-03-22T02:29:48.408Z,961.00
2024-03-22T02:30:48.381Z,969.00
2024-03-22T02:31:48.350Z,958.00
2024-03-22T02:32:48.391Z,965.00
2024-03-22T02:33:48.380Z,959.00
2024-03-22T02:34:56.003Z,964.00
2024-03-22T02:35:49.370Z,964.00
2024-03-22T02:36:48.399Z,966.00
2024-03-22T02:37:48.388Z,964.00
2024-03-22T02:38:48.398Z,962.00
2024-03-22T02:39:48.372Z,965.00
2024-03-22T02:40:48.377Z,962.00
2024-03-22T02:41:48.397Z,965.00
2024-03-22T02:42:48.401Z,961.00
2024-03-22T02:43:48.414Z,971.00
2024-03-22T02:44:48.473Z,963.00
2024-03-22T02:45:48.397Z,957.00
2024-03-22T02:46:48.383Z,963.00
2024-03-22T02:47:48.392Z,955.00
2024-03-22T02:48:48.401Z,965.00
2024-03-22T02:49:48.399Z,957.00
2024-03-22T02:50:48.412Z,959.00
2024-03-22T02:51:48.422Z,961.00
2024-03-22T02:52:48.400Z,957.00
2024-03-22T02:53:48.398Z,969.00
2024-03-22T02:54:48.418Z,964.00
2024-03-22T02:55:48.416Z,958.00
2024-03-22T02:56:48.416Z,963.00
2024-03-22T02:57:48.425Z,957.00
2024-03-22T02:58:48.406Z,955.00
2024-03-22T02:59:48.450Z,961.00
2024-03-22T03:00:48.408Z,959.00
2024-03-22T03:01:48.421Z,954.00
2024-03-22T03:02:48.430Z,968.00
2024-03-22T03:03:48.424Z,958.00
2024-03-22T03:04:48.444Z,967.00
2024-03-22T03:05:48.420Z,958.00
2024-03-22T03:06:48.455Z,963.00
2024-03-22T03:07:48.465Z,954.00
2024-03-22T03:08:48.466Z,961.00
2024-03-22T03:09:48.452Z,954.00
2024-03-22T03:10:48.488Z,957.00
2024-03-22T03:11:48.416Z,954.00
2024-03-22T03:12:49.080Z,962.00
2024-03-22T03:13:48.428Z,967.00
2024-03-22T03:14:48.437Z,961.00
2024-03-22T03:15:48.454Z,950.00
2024-03-22T03:16:48.418Z,955.00
2024-03-22T03:17:48.432Z,950.00
2024-03-22T03:18:48.431Z,960.00
2024-03-22T03:19:48.464Z,952.00
2024-03-22T03:20:48.470Z,956.00
2024-03-22T03:21:48.422Z,957.00
2024-03-22T03:22:48.510Z,959.00
2024-03-22T03:23:48.473Z,946.00
2024-03-22T03:24:48.446Z,965.00
2024-03-22T03:25:48.443Z,958.00
2024-03-22T03:26:48.442Z,954.00
2024-03-22T03:27:48.460Z,958.00
2024-03-22T03:28:48.458Z,955.00
2024-03-22T03:29:48.467Z,953.00
2024-03-22T03:30:48.469Z,960.00
2024-03-22T03:31:48.491Z,952.00
2024-03-22T03:32:48.455Z,953.00
2024-03-22T03:33:48.502Z,948.00
2024-03-22T03:34:48.503Z,955.00
2024-03-22T03:35:48.443Z,955.00
2024-03-22T03:36:48.484Z,956.00
2024-03-22T03:37:48.485Z,945.00
2024-03-22T03:38:48.524Z,952.00
2024-03-22T03:39:48.570Z,961.00
2024-03-22T03:40:48.576Z,953.00
2024-03-22T03:41:48.574Z,956.00
2024-03-22T03:42:48.563Z,954.00
2024-03-22T03:43:48.598Z,954.00
2024-03-22T03:44:48.613Z,952.00
2024-03-22T03:45:48.632Z,957.00
2024-03-22T03:46:48.685Z,944.00
2024-03-22T03:47:48.666Z,944.00
2024-03-22T03:48:48.700Z,952.00
2024-03-22T03:49:48.702Z,958.00
2024-03-22T03:50:48.713Z,945.00
2024-03-22T03:51:48.749Z,947.00
2024-03-22T03:52:48.772Z,950.00
2024-03-22T03:53:48.777Z,947.00
2024-03-22T03:54:48.778Z,951.00
2024-03-22T03:55:48.786Z,947.00
2024-03-22T03:56:48.874Z,947.00
2024-03-22T03:57:48.867Z,955.00
2024-03-22T03:58:48.858Z,955.00
2024-03-22T03:59:48.855Z,946.00
2024-03-22T04:00:49.132Z,945.00
2024-03-22T04:01:48.938Z,955.00
2024-03-22T04:02:48.900Z,947.00
2024-03-22T04:03:48.957Z,958.00
2024-03-22T04:04:48.947Z,951.00
2024-03-22T04:05:48.957Z,957.00
2024-03-22T04:06:49.010Z,946.00
2024-03-22T04:07:49.038Z,938.00
2024-03-22T04:08:49.040Z,949.00
2024-03-22T04:09:49.100Z,949.00
2024-03-22T04:10:49.063Z,956.00
2024-03-22T04:11:49.109Z,943.00
2024-03-22T04:12:49.112Z,948.00
2024-03-22T04:13:49.187Z,936.00
2024-03-22T04:14:49.199Z,939.00
2024-03-22T04:15:49.229Z,945.00
2024-03-22T04:16:49.204Z,947.00
2024-03-22T04:17:49.251Z,951.00
2024-03-22T04:18:49.257Z,949.00
2024-03-22T04:19:49.330Z,945.00
2024-03-22T04:20:49.332Z,937.00
2024-03-22T04:21:49.308Z,938.00
2024-03-22T04:22:49.334Z,943.00
2024-03-22T04:23:49.348Z,945.00
2024-03-22T04:24:49.403Z,943.00
2024-03-22T04:25:49.413Z,949.00
2024-03-22T04:26:49.413Z,947.00
2024-03-22T04:27:49.449Z,945.00
2024-03-22T04:28:56.715Z,600.00
2024-03-22T04:29:56.670Z,600.00
2024-03-22T04:30:56.672Z,600.00
2024-03-22T04:32:03.911Z,600.00
2024-03-22T04:33:03.936Z,600.00
2024-03-22T04:34:03.907Z,600.00
2024-03-22T04:35:03.940Z,600.00
2024-03-22T04:36:03.870Z,600.00
2024-03-22T04:37:03.871Z,600.00
2024-03-22T04:38:03.944Z,602.00
2024-03-22T04:39:03.935Z,600.00
2024-03-22T04:40:03.912Z,603.00
2024-03-22T04:41:03.918Z,602.00
2024-03-22T04:42:03.952Z,603.00
2024-03-22T04:43:03.896Z,602.00
2024-03-22T04:44:04.128Z,601.00
2024-03-22T04:45:03.943Z,602.00
2024-03-22T04:46:03.887Z,606.00
2024-03-22T04:47:03.893Z,602.00
2024-03-22T04:48:03.904Z,602.00
2024-03-22T04:49:03.899Z,600.00
2024-03-22T04:50:03.898Z,601.00
2024-03-22T04:51:03.942Z,604.00
2024-03-22T04:52:03.953Z,603.00
2024-03-22T04:53:03.882Z,601.00
2024-03-22T04:54:03.935Z,601.00
2024-03-22T04:55:03.994Z,601.00
2024-03-22T04:56:03.918Z,600.00
2024-03-22T04:57:03.884Z,604.00
2024-03-22T04:58:03.963Z,604.00
2024-03-22T04:59:03.922Z,606.00
2024-03-22T05:00:03.932Z,601.00
2024-03-22T05:01:03.952Z,607.00
2024-03-22T05:02:03.943Z,601.00
2024-03-22T05:03:03.942Z,602.00
2024-03-22T05:04:03.952Z,605.00
2024-03-22T05:05:03.961Z,603.00
2024-03-22T05:06:03.969Z,600.00
2024-03-22T05:07:03.920Z,600.00
2024-03-22T05:08:03.931Z,603.00
2024-03-22T05:09:03.937Z,600.00
2024-03-22T05:10:03.941Z,603.00
2024-03-22T05:11:03.946Z,602.00
2024-03-22T05:12:03.973Z,601.00
2024-03-22T05:13:03.915Z,600.00
2024-03-22T05:14:03.916Z,600.00
2024-03-22T05:15:03.946Z,600.00
2024-03-22T05:16:03.935Z,599.00
2024-03-22T05:17:03.984Z,603.00
2024-03-22T05:18:03.949Z,603.00
2024-03-22T05:19:03.950Z,601.00
2024-03-22T05:20:04.389Z,603.00
2024-03-22T05:21:03.981Z,599.00
2024-03-22T05:22:03.971Z,601.00
2024-03-22T05:23:03.957Z,600.00
2024-03-22T05:24:03.955Z,600.00
2024-03-22T05:25:03.947Z,600.00
2024-03-22T05:26:03.948Z,600.00
2024-03-22T05:27:04.010Z,600.00
2024-03-22T05:28:49.682Z,600.00
2024-03-22T05:29:49.644Z,600.00
2024-03-22T05:30:49.644Z,600.00
2024-03-22T05:31:49.677Z,600.00
2024-03-22T05:32:49.666Z,600.00
2024-03-22T05:33:49.661Z,601.00
2024-03-22T05:34:49.670Z,600.00
2024-03-22T05:35:49.735Z,600.00
2024-03-22T05:36:49.691Z,602.00
2024-03-22T05:37:49.703Z,605.00
2024-03-22T05:38:49.699Z,601.00
2024-03-22T05:39:49.706Z,602.00
2024-03-22T05:40:49.670Z,605.00
2024-03-22T05:41:49.667Z,610.00
2024-03-22T05:42:49.675Z,605.00
2024-03-22T05:43:49.709Z,611.00
2024-03-22T05:44:49.670Z,607.00
2024-03-22T05:45:49.693Z,608.00
2024-03-22T05:46:49.701Z,607.00
2024-03-22T05:47:49.710Z,611.00
2024-03-22T05:48:49.688Z,606.00
2024-03-22T05:49:50.135Z,611.00
2024-03-22T05:50:49.669Z,612.00
2024-03-22T05:51:49.657Z,613.00
2024-03-22T05:52:49.692Z,614.00
2024-03-22T05:53:49.650Z,616.00
2024-03-22T05:54:49.708Z,615.00
2024-03-22T05:55:49.666Z,616.00
2024-03-22T05:56:49.672Z,620.00
2024-03-22T05:57:49.683Z,618.00
2024-03-22T05:58:49.673Z,622.00
2024-03-22T05:59:49.685Z,625.00
2024-03-22T06:00:49.698Z,625.00
2024-03-22T06:01:49.705Z,622.00
2024-03-22T06:02:49.687Z,622.00
2024-03-22T06:03:49.763Z,628.00
2024-03-22T06:04:49.694Z,626.00
2024-03-22T06:05:49.789Z,626.00
2024-03-22T06:06:49.685Z,632.00
2024-03-22T06:07:49.694Z,628.00
2024-03-22T06:08:49.724Z,627.00
2024-03-22T06:09:49.769Z,627.00
2024-03-22T06:10:49.718Z,628.00
2024-03-22T06:11:49.744Z,631.00
2024-03-22T06:12:49.726Z,632.00
2024-03-22T06:13:49.733Z,630.00
2024-03-22T06:14:49.750Z,635.00
2024-03-22T06:15:49.798Z,635.00
2024-03-22T06:16:49.821Z,632.00
2024-03-22T06:17:49.817Z,631.00
2024-03-22T06:18:49.825Z,635.00
2024-03-22T06:19:49.874Z,632.00
2024-03-22T06:20:49.902Z,634.00
2024-03-22T06:21:49.942Z,639.00
2024-03-22T06:22:49.947Z,640.00
2024-03-22T06:23:49.975Z,636.00
2024-03-22T06:24:50.020Z,637.00
2024-03-22T06:25:50.029Z,641.00
2024-03-22T06:26:50.030Z,637.00
2024-03-22T06:27:50.054Z,639.00
2024-03-22T06:28:50.094Z,638.00
2024-03-22T06:29:50.103Z,641.00
2024-03-22T06:30:50.162Z,637.00
2024-03-22T06:31:50.157Z,644.00
2024-03-22T06:32:50.192Z,636.00
2024-03-22T06:33:50.188Z,635.00
2024-03-22T06:34:50.243Z,625.00
2024-03-22T06:35:50.325Z,613.00
2024-03-22T06:36:50.318Z,601.00
2024-03-22T06:37:50.362Z,600.00
2024-03-22T06:38:50.661Z,600.00
2024-03-22T06:39:50.437Z,600.00
2024-03-22T06:40:50.536Z,606.00
2024-03-22T06:41:50.592Z,604.00
2024-03-22T06:42:50.659Z,604.00
2024-03-22T06:43:50.675Z,600.00
2024-03-22T06:44:50.778Z,601.00
2024-03-22T06:45:50.900Z,604.00
2024-03-22T06:46:50.835Z,602.00
2024-03-22T06:47:50.869Z,600.00
2024-03-22T06:48:50.950Z,601.00
2024-03-22T06:49:51.302Z,604.00
2024-03-22T06:50:50.926Z,603.00
2024-03-22T06:51:51.024Z,602.00
2024-03-22T06:52:51.081Z,600.00
2024-03-22T06:53:53.439Z,602.00
2024-03-22T06:54:51.293Z,601.00
2024-03-22T06:55:51.257Z,604.00
2024-03-22T06:56:51.269Z,605.00
2024-03-22T06:57:51.328Z,607.00
2024-03-22T06:58:51.833Z,602.00
2024-03-22T06:59:51.378Z,607.00
2024-03-22T07:00:51.391Z,609.00
2024-03-22T07:01:51.400Z,611.00
2024-03-22T07:02:52.376Z,614.00
2024-03-22T07:03:51.837Z,618.00
2024-03-22T07:04:51.899Z,617.00
2024-03-22T07:05:52.337Z,614.00
2024-03-22T07:06:51.488Z,616.00
2024-03-22T07:07:51.456Z,615.00
2024-03-22T07:08:51.449Z,614.00
2024-03-22T07:09:51.801Z,615.00
2024-03-22T07:10:51.496Z,614.00
2024-03-22T07:11:51.485Z,611.00
2024-03-22T07:12:51.510Z,610.00
2024-03-22T07:13:51.521Z,610.00
2024-03-22T07:14:51.856Z,604.00
2024-03-22T07:15:51.541Z,601.00
2024-03-22T07:16:51.562Z,602.00
2024-03-22T07:17:51.746Z,600.00
2024-03-22T07:18:51.553Z,602.00
2024-03-22T07:19:51.577Z,606.00
2024-03-22T07:20:51.622Z,607.00
2024-03-22T07:21:51.850Z,604.00
2024-03-22T07:22:51.595Z,602.00
2024-03-22T07:23:51.981Z,601.00
2024-03-22T07:24:51.552Z,602.00
2024-03-22T07:25:51.551Z,603.00
2024-03-22T07:26:51.812Z,606.00
2024-03-22T07:27:54.343Z,606.00
2024-03-22T07:28:51.622Z,609.00
2024-03-22T07:29:51.659Z,605.00
2024-03-22T07:30:51.684Z,606.00
2024-03-22T07:31:51.788Z,607.00
2024-03-22T07:32:51.754Z,612.00
2024-03-22T07:33:51.680Z,615.00
2024-03-22T07:34:51.643Z,615.00
2024-03-22T07:35:51.854Z,617.00
2024-03-22T07:36:51.636Z,618.00
2024-03-22T07:37:51.663Z,619.00
2024-03-22T07:38:51.749Z,621.00
2024-03-22T07:39:51.660Z,612.00
2024-03-22T07:40:51.810Z,609.00
2024-03-22T07:41:51.703Z,602.00
2024-03-22T07:42:51.980Z,603.00
2024-03-22T07:43:52.131Z,605.00
2024-03-22T07:44:52.937Z,606.00
2024-03-22T07:45:51.911Z,601.00
2024-03-22T07:46:51.644Z,608.00
2024-03-22T07:47:51.671Z,607.00
2024-03-22T07:48:51.754Z,613.00
2024-03-22T07:49:51.679Z,617.00
2024-03-22T07:50:51.858Z,625.00
2024-03-22T07:51:51.701Z,625.00
2024-03-22T07:52:51.714Z,629.00
2024-03-22T07:53:51.698Z,633.00
2024-03-22T07:54:51.758Z,638.00
2024-03-22T07:55:51.994Z,635.00
2024-03-22T07:56:51.841Z,638.00
2024-03-22T07:57:51.970Z,645.00
2024-03-22T07:58:51.714Z,644.00
2024-03-22T07:59:51.869Z,646.00
2024-03-22T08:00:51.856Z,649.00
2024-03-22T08:01:51.708Z,650.00
2024-03-22T08:02:51.736Z,650.00
2024-03-22T08:03:51.685Z,649.00
2024-03-22T08:04:51.737Z,653.00
2024-03-22T08:05:51.932Z,653.00
2024-03-22T08:06:51.835Z,653.00
2024-03-22T08:07:51.690Z,655.00
2024-03-22T08:08:51.780Z,650.00
2024-03-22T08:09:51.764Z,647.00
2024-03-22T08:10:51.821Z,650.00
2024-03-22T08:11:51.930Z,646.00
2024-03-22T08:12:52.368Z,647.00
2024-03-22T08:13:51.938Z,645.00
2024-03-22T08:14:52.003Z,638.00
2024-03-22T08:15:52.151Z,638.00
2024-03-22T08:16:52.113Z,636.00
2024-03-22T08:17:52.351Z,641.00
2024-03-22T08:18:52.457Z,644.00
2024-03-22T08:19:52.284Z,646.00
2024-03-22T08:20:52.365Z,650.00
2024-03-22T08:21:53.251Z,649.00
2024-03-22T08:22:52.409Z,632.00
2024-03-22T08:23:52.819Z,640.00
2024-03-22T08:24:53.329Z,652.00
2024-03-22T08:25:52.486Z,639.00
2024-03-22T08:26:52.856Z,645.00
2024-03-22T08:28:01.086Z,642.00
2024-03-22T08:28:53.666Z,642.00
2024-03-22T08:29:52.698Z,636.00
2024-03-22T08:30:53.433Z,644.00
2024-03-22T08:31:52.570Z,639.00
2024-03-22T08:32:52.588Z,649.00
2024-03-22T08:33:52.642Z,648.00
2024-03-22T08:34:52.618Z,646.00
2024-03-22T08:35:54.641Z,643.00
2024-03-22T08:36:52.875Z,650.00
2024-03-22T08:37:52.775Z,646.00
2024-03-22T08:38:52.795Z,641.00
2024-03-22T08:39:53.354Z,654.00
2024-03-22T08:40:52.825Z,654.00
2024-03-22T08:41:52.805Z,650.00
2024-03-22T08:42:52.871Z,650.00
2024-03-22T08:43:52.880Z,653.00
2024-03-22T08:44:52.953Z,653.00
2024-03-22T08:45:52.874Z,654.00
2024-03-22T08:46:52.864Z,656.00
2024-03-22T08:47:52.885Z,657.00
2024-03-22T08:48:52.883Z,650.00
2024-03-22T08:49:52.960Z,649.00
2024-03-22T08:50:52.981Z,648.00
2024-03-22T08:51:53.395Z,657.00
2024-03-22T08:52:52.936Z,659.00
2024-03-22T08:53:53.146Z,662.00
2024-03-22T08:54:53.094Z,673.00
2024-03-22T08:55:53.118Z,678.00
2024-03-22T08:56:53.206Z,685.00
2024-03-22T08:57:58.057Z,702.00
2024-03-22T08:58:54.281Z,703.00
2024-03-22T08:59:53.338Z,708.00
2024-03-22T09:00:53.305Z,717.00
2024-03-22T09:01:53.282Z,737.00
2024-03-22T09:02:53.375Z,751.00
2024-03-22T09:03:53.306Z,768.00
2024-03-22T09:04:53.279Z,774.00
2024-03-22T09:06:00.778Z,795.00
2024-03-22T09:06:54.308Z,795.00
2024-03-22T09:07:53.358Z,801.00
2024-03-22T09:08:53.334Z,811.00
2024-03-22T09:09:53.302Z,843.00
2024-03-22T09:10:53.350Z,870.00
2024-03-22T09:11:53.405Z,884.00
2024-03-22T09:12:53.313Z,897.00
2024-03-22T09:13:53.336Z,907.00
2024-03-22T09:14:53.372Z,911.00
2024-03-22T09:15:53.450Z,920.00
2024-03-22T09:16:53.553Z,933.00
2024-03-22T09:17:54.049Z,928.00
2024-03-22T09:18:53.594Z,930.00
2024-03-22T09:19:53.891Z,939.00
2024-03-22T09:20:53.866Z,945.00
2024-03-22T09:21:53.761Z,946.00
2024-03-22T09:22:53.845Z,957.00
2024-03-22T09:23:53.929Z,966.00
2024-03-22T09:24:53.919Z,963.00
2024-03-22T09:25:53.986Z,957.00
2024-03-22T09:26:54.123Z,955.00
2024-03-22T09:27:54.138Z,959.00
2024-03-22T09:28:54.258Z,953.00
2024-03-22T09:29:54.266Z,943.00
2024-03-22T09:30:57.968Z,935.00
2024-03-22T09:31:54.277Z,935.00
2024-03-22T09:32:54.292Z,912.00
2024-03-22T09:33:54.321Z,895.00
2024-03-22T09:34:54.396Z,883.00
2024-03-22T09:35:54.742Z,874.00
2024-03-22T09:36:54.346Z,870.00
2024-03-22T09:37:54.308Z,842.00
2024-03-22T09:38:54.369Z,829.00
2024-03-22T09:39:54.335Z,817.00
2024-03-22T09:40:54.372Z,802.00
2024-03-22T09:41:54.882Z,777.00
2024-03-22T09:42:54.299Z,740.00
2024-03-22T09:43:54.316Z,676.00
2024-03-22T09:44:54.442Z,657.00
2024-03-22T09:45:54.531Z,652.00
2024-03-22T09:46:54.320Z,638.00
2024-03-22T09:47:54.872Z,639.00
2024-03-22T09:48:54.317Z,633.00
2024-03-22T09:49:54.397Z,627.00
2024-03-22T09:50:54.331Z,628.00
2024-03-22T09:51:54.372Z,625.00
2024-03-22T09:52:54.384Z,634.00
2024-03-22T09:53:54.504Z,631.00
2024-03-22T09:54:54.358Z,635.00
2024-03-22T09:55:54.329Z,639.00
2024-03-22T09:56:54.957Z,635.00
2024-03-22T09:57:54.501Z,646.00
2024-03-22T09:58:54.404Z,647.00
2024-03-22T09:59:55.894Z,650.00
2024-03-22T10:00:54.893Z,648.00
2024-03-22T10:01:54.537Z,650.00
2024-03-22T10:02:54.768Z,655.00
2024-03-22T10:03:54.729Z,659.00
2024-03-22T10:04:54.755Z,658.00
2024-03-22T10:05:54.942Z,668.00
2024-03-22T10:06:54.880Z,683.00
2024-03-22T10:07:54.968Z,708.00
2024-03-22T10:08:55.055Z,712.00
2024-03-22T10:09:56.322Z,721.00
2024-03-22T10:10:55.150Z,731.00
2024-03-22T10:11:55.210Z,752.00
2024-03-22T10:12:55.877Z,763.00
2024-03-22T10:13:55.311Z,775.00
2024-03-22T10:14:55.390Z,792.00
2024-03-22T10:15:55.394Z,807.00
2024-03-22T10:16:57.844Z,819.00
2024-03-22T10:17:55.549Z,836.00
2024-03-22T10:18:55.653Z,828.00
2024-03-22T10:19:55.617Z,826.00
2024-03-22T10:20:55.894Z,836.00
2024-03-22T10:21:55.780Z,840.00
2024-03-22T10:22:55.775Z,835.00
2024-03-22T10:23:55.863Z,835.00
2024-03-22T10:24:56.429Z,835.00
2024-03-22T10:25:56.023Z,817.00
2024-03-22T10:26:55.947Z,801.00
2024-03-22T10:27:56.080Z,796.00
2024-03-22T10:28:56.105Z,778.00
2024-03-22T10:29:56.178Z,770.00
2024-03-22T10:30:56.263Z,767.00
2024-03-22T10:31:56.526Z,777.00
2024-03-22T10:32:56.374Z,777.00
2024-03-22T10:33:56.402Z,766.00
2024-03-22T10:34:57.905Z,704.00
2024-03-22T10:35:56.434Z,678.00
2024-03-22T10:36:56.997Z,653.00
2024-03-22T10:37:56.511Z,634.00
2024-03-22T10:38:56.488Z,617.00
2024-03-22T10:39:56.513Z,615.00
2024-03-22T10:40:56.510Z,602.00
2024-03-22T10:41:56.611Z,602.00
2024-03-22T10:42:56.539Z,603.00
2024-03-22T10:43:56.651Z,601.00
2024-03-22T10:44:56.895Z,605.00
2024-03-22T10:45:58.626Z,608.00
2024-03-22T10:46:56.822Z,609.00
2024-03-22T10:47:56.764Z,615.00
2024-03-22T10:48:57.478Z,617.00
2024-03-22T10:49:56.884Z,623.00
2024-03-22T10:50:57.104Z,623.00
2024-03-22T10:51:57.447Z,628.00
2024-03-22T10:52:57.045Z,637.00
2024-03-22T10:53:57.143Z,632.00
2024-03-22T10:54:57.419Z,645.00
2024-03-22T10:55:57.231Z,649.00
2024-03-22T10:56:57.340Z,659.00
2024-03-22T10:57:57.303Z,660.00
2024-03-22T10:58:57.394Z,666.00
2024-03-22T10:59:57.458Z,672.00
2024-03-22T11:00:57.400Z,683.00
2024-03-22T11:01:57.517Z,700.00
2024-03-22T11:02:57.504Z,727.00
2024-03-22T11:03:57.991Z,731.00
2024-03-22T11:04:57.533Z,750.00
2024-03-22T11:05:57.618Z,752.00
2024-03-22T11:06:57.919Z,759.00
2024-03-22T11:07:57.629Z,756.00
2024-03-22T11:08:57.703Z,771.00
2024-03-22T11:09:57.905Z,780.00
2024-03-22T11:10:57.710Z,796.00
2024-03-22T11:11:59.614Z,801.00
2024-03-22T11:12:57.933Z,812.00
2024-03-22T11:13:57.786Z,833.00
2024-03-22T11:14:57.771Z,815.00
2024-03-22T11:15:57.755Z,836.00
2024-03-22T11:16:57.868Z,842.00
2024-03-22T11:17:59.602Z,859.00
2024-03-22T11:18:57.803Z,863.00
2024-03-22T11:19:57.799Z,884.00
2024-03-22T11:20:57.859Z,890.00
2024-03-22T11:21:57.828Z,905.00
2024-03-22T11:22:57.837Z,918.00
2024-03-22T11:23:57.985Z,908.00
2024-03-22T11:24:57.960Z,902.00
2024-03-22T11:25:57.997Z,913.00
2024-03-22T11:26:57.989Z,911.00
2024-03-22T11:27:57.962Z,924.00
2024-03-22T11:28:58.011Z,933.00
2024-03-22T11:29:57.986Z,927.00
2024-03-22T11:30:58.395Z,939.00
2024-03-22T11:31:57.980Z,941.00
2024-03-22T11:32:57.965Z,961.00
2024-03-22T11:33:57.976Z,953.00
2024-03-22T11:34:57.981Z,942.00
2024-03-22T11:35:58.414Z,927.00
2024-03-22T11:36:58.041Z,916.00
2024-03-22T11:37:58.044Z,889.00
2024-03-22T11:38:58.949Z,885.00
2024-03-22T11:39:58.060Z,857.00
2024-03-22T11:40:58.080Z,839.00
2024-03-22T11:41:58.105Z,829.00
2024-03-22T11:42:58.113Z,823.00
2024-03-22T11:43:58.178Z,787.00
2024-03-22T11:44:58.134Z,786.00
2024-03-22T11:45:58.119Z,755.00
2024-03-22T11:46:58.167Z,748.00
2024-03-22T11:47:58.194Z,736.00
2024-03-22T11:48:58.175Z,722.00
2024-03-22T11:49:58.212Z,716.00
2024-03-22T11:50:58.270Z,693.00
2024-03-22T11:51:58.244Z,685.00
2024-03-22T11:52:58.304Z,670.00
2024-03-22T11:53:58.350Z,660.00
2024-03-22T11:54:58.324Z,656.00
2024-03-22T11:55:58.328Z,650.00
2024-03-22T11:56:58.482Z,644.00
2024-03-22T11:57:58.475Z,636.00
2024-03-22T11:58:58.474Z,632.00
2024-03-22T12:00:07.034Z,627.00
2024-03-22T12:01:12.482Z,621.00
2024-03-22T12:01:59.516Z,624.00
2024-03-22T12:02:58.470Z,615.00
2024-03-22T12:03:58.457Z,611.00
2024-03-22T12:04:58.462Z,607.00
2024-03-22T12:05:58.481Z,599.00
2024-03-22T12:06:58.564Z,603.00
2024-03-22T12:07:58.492Z,606.00
2024-03-22T12:08:58.483Z,605.00
2024-03-22T12:09:59.441Z,613.00
2024-03-22T12:10:58.485Z,612.00
2024-03-22T12:11:58.608Z,614.00
2024-03-22T12:12:58.492Z,620.00
2024-03-22T12:13:58.469Z,625.00
2024-03-22T12:14:58.527Z,629.00
2024-03-22T12:15:58.943Z,634.00
2024-03-22T12:16:58.531Z,637.00
2024-03-22T12:17:59.019Z,643.00
2024-03-22T12:18:58.486Z,647.00
2024-03-22T12:19:58.488Z,648.00
2024-03-22T12:20:58.489Z,651.00
2024-03-22T12:21:58.480Z,656.00
2024-03-22T12:22:58.514Z,658.00
2024-03-22T12:23:58.511Z,661.00
2024-03-22T12:24:58.506Z,660.00
2024-03-22T12:25:58.504Z,661.00
2024-03-22T12:26:58.541Z,669.00
2024-03-22T12:27:58.487Z,672.00
2024-03-22T12:28:58.507Z,665.00
2024-03-22T12:29:58.582Z,685.00